Time;durP1;ratioP1;P1;durP2;ratioP2;P2;SDS_P1;SDS_P2;PMS_P1;PMS_P2;Temp;Humidity;BMP_temperature;BMP_pressure;BME280_temperature;BME280_humidity;BME280_pressure;Samples;Min_cycle;Max_cycle;Signal;HPM_P1;HPM_P2
2021/09/13 00:03:29;;;;;;;10.03;8.10;;;;;;;14.57;74.95;99814.51;256159;1106;115409;-67
2021/09/13 00:08:34;;;;;;;9.63;7.03;;;;;;;14.49;74.62;99820.34;256122;1107;116003;-66
2021/09/13 00:13:36;;;;;;;9.00;8.13;;;;;;;14.45;74.49;99817.38;255501;1106;115321;-66
2021/09/13 00:18:40;;;;;;;8.88;8.05;;;;;;;14.44;74.92;99810.39;254016;1107;116451;-66
2021/09/13 00:23:45;;;;;;;9.57;7.17;;;;;;;14.52;75.45;99813.66;254608;1107;116529;-66
2021/09/13 00:28:48;;;;;;;9.45;8.65;;;;;;;14.52;74.75;99810.98;254794;1107;116439;-66
2021/09/13 00:33:52;;;;;;;9.90;8.87;;;;;;;14.40;75.19;99816.48;253962;1106;115747;-66
2021/09/13 00:38:55;;;;;;;8.28;7.48;;;;;;;14.26;74.92;99812.65;253797;1107;116509;-66
2021/09/13 00:43:59;;;;;;;9.28;8.48;;;;;;;14.09;75.21;99816.26;253923;1106;116696;-66
2021/09/13 00:49:02;;;;;;;10.85;9.75;;;;;;;14.02;75.84;99813.00;253831;1106;116266;-65
2021/09/13 00:54:06;;;;;;;11.10;7.45;;;;;;;14.10;76.10;99811.70;253626;1106;116392;-67
2021/09/13 00:59:12;;;;;;;10.85;9.13;;;;;;;14.21;76.20;99805.38;254008;1107;116284;-66
2021/09/13 01:04:15;;;;;;;10.93;8.58;;;;;;;14.21;75.62;99807.24;254163;1107;118603;-66
2021/09/13 01:09:18;;;;;;;11.63;9.55;;;;;;;14.04;76.22;99802.84;253717;1107;116349;-65
2021/09/13 01:14:21;;;;;;;10.35;8.75;;;;;;;14.01;76.10;99789.95;253869;1107;116998;-66
2021/09/13 01:19:24;;;;;;;13.18;9.80;;;;;;;13.91;76.11;99792.53;253991;1107;116645;-65
2021/09/13 01:24:29;;;;;;;13.05;9.35;;;;;;;13.86;75.92;99795.16;253871;1107;117283;-66
2021/09/13 01:29:34;;;;;;;12.80;10.28;;;;;;;13.83;76.44;99795.66;254003;1107;117115;-65
2021/09/13 01:34:37;;;;;;;15.20;10.15;;;;;;;13.77;76.57;99791.31;254656;1107;116202;-65
2021/09/13 01:39:43;;;;;;;10.98;9.18;;;;;;;13.77;76.29;99788.64;254378;1107;117684;-65
2021/09/13 01:44:46;;;;;;;10.47;9.37;;;;;;;13.76;76.17;99790.51;253635;1107;116735;-67
2021/09/13 01:49:49;;;;;;;11.25;9.75;;;;;;;13.77;77.21;99785.96;253811;1106;116724;-65
2021/09/13 01:54:54;;;;;;;10.85;9.75;;;;;;;13.86;76.80;99789.80;255536;1107;116188;-65
2021/09/13 01:59:57;;;;;;;10.73;9.63;;;;;;;13.86;76.62;99792.48;255010;1103;116149;-66
2021/09/13 02:05:03;;;;;;;10.58;9.45;;;;;;;13.87;76.77;99798.65;254501;1107;116353;-67
2021/09/13 02:10:07;;;;;;;10.90;9.78;;;;;;;13.87;77.11;99795.97;256445;1107;116074;-66
2021/09/13 02:15:12;;;;;;;12.85;8.73;;;;;;;13.82;76.98;99794.05;254585;1107;115312;-65
2021/09/13 02:20:15;;;;;;;10.48;8.05;;;;;;;13.83;76.74;99801.03;256004;1107;115608;-65
2021/09/13 02:25:18;;;;;;;10.97;8.50;;;;;;;13.89;77.47;99808.05;253872;1107;115804;-67
2021/09/13 02:30:22;;;;;;;10.93;9.70;;;;;;;13.99;77.85;99804.66;254687;1107;115573;-67
2021/09/13 02:35:26;;;;;;;10.63;9.60;;;;;;;13.93;77.48;99800.31;253887;1107;116183;-66
2021/09/13 02:40:30;;;;;;;9.58;8.68;;;;;;;13.87;77.07;99806.69;253920;1107;115892;-69
2021/09/13 02:45:33;;;;;;;12.20;9.68;;;;;;;13.79;77.10;99803.40;254396;1107;116681;-66
2021/09/13 02:50:36;;;;;;;16.68;10.18;;;;;;;13.75;77.35;99799.64;253537;1106;118601;-66
2021/09/13 02:55:39;;;;;;;10.53;9.43;;;;;;;13.86;77.89;99802.39;253781;1107;117217;-66
2021/09/13 03:00:42;;;;;;;9.63;8.67;;;;;;;13.92;77.69;99796.83;253895;1107;117266;-66
2021/09/13 03:05:46;;;;;;;9.93;8.95;;;;;;;13.91;77.58;99799.77;253751;1107;117403;-68
2021/09/13 03:10:52;;;;;;;9.08;8.03;;;;;;;13.91;78.28;99799.77;254007;1107;115840;-66
2021/09/13 03:15:55;;;;;;;11.47;8.80;;;;;;;13.86;77.89;99802.39;253970;1107;116506;-66
2021/09/13 03:20:58;;;;;;;13.70;11.43;;;;;;;13.78;77.93;99804.46;253822;1106;116601;-66
2021/09/13 03:26:00;;;;;;;12.00;10.05;;;;;;;13.79;77.75;99805.27;254042;1107;116042;-66
2021/09/13 03:31:04;;;;;;;15.73;11.03;;;;;;;13.81;78.17;99801.28;254193;1106;116079;-65
2021/09/13 03:36:07;;;;;;;11.83;10.10;;;;;;;13.95;78.45;99808.91;253871;1106;115905;-65
2021/09/13 03:41:11;;;;;;;14.13;11.10;;;;;;;14.08;79.09;99809.28;254307;1106;116691;-66
2021/09/13 03:46:14;;;;;;;19.00;11.40;;;;;;;14.12;78.68;99809.58;253472;1106;116455;-68
2021/09/13 03:51:18;;;;;;;13.10;10.48;;;;;;;14.09;78.12;99802.05;254228;1107;117006;-67
2021/09/13 03:56:21;;;;;;;13.58;12.18;;;;;;;14.10;78.85;99806.34;254002;1106;116572;-67
2021/09/13 04:01:25;;;;;;;15.73;12.30;;;;;;;14.15;78.70;99811.75;253855;1106;117176;-66
2021/09/13 04:11:54;;;;;;;15.70;11.90;;;;;;;14.16;78.67;99810.69;253977;1107;116760;-65
2021/09/13 04:16:58;;;;;;;16.65;12.73;;;;;;;14.24;78.96;99814.77;255411;1107;117390;-66
2021/09/13 04:22:03;;;;;;;18.08;12.55;;;;;;;14.33;79.19;99816.73;253993;1107;116398;-66
2021/09/13 04:27:06;;;;;;;14.18;12.13;;;;;;;14.43;78.93;99816.81;254121;1107;116813;-66
2021/09/13 04:32:12;;;;;;;14.40;12.67;;;;;;;14.52;79.16;99830.56;255523;1107;116101;-66
2021/09/13 04:37:16;;;;;;;19.83;13.63;;;;;;;14.54;78.94;99827.63;253818;1103;117020;-64
2021/09/13 04:42:19;;;;;;;21.03;15.78;;;;;;;14.51;78.96;99825.45;255150;1100;116030;-66
2021/09/13 04:47:23;;;;;;;17.93;14.03;;;;;;;14.51;79.23;99828.95;253879;1100;116119;-68
2021/09/13 04:52:26;;;;;;;20.35;15.93;;;;;;;14.58;79.28;99823.36;253748;1107;115956;-66
2021/09/13 04:57:29;;;;;;;18.28;14.53;;;;;;;14.65;79.59;99826.63;254380;1107;116212;-65
2021/09/13 05:02:31;;;;;;;19.60;13.97;;;;;;;14.75;79.37;99840.09;254095;1107;115224;-65
2021/09/13 05:07:35;;;;;;;20.70;16.50;;;;;;;14.92;79.43;99838.06;253622;1107;115712;-68
2021/09/13 05:12:40;;;;;;;20.70;16.70;;;;;;;15.13;79.85;99847.01;253774;1100;115237;-66
2021/09/13 05:17:44;;;;;;;25.28;18.65;;;;;;;15.27;79.41;99839.30;253855;1107;118318;-65
2021/09/13 05:22:47;;;;;;;23.18;17.78;;;;;;;15.42;79.50;99850.08;254333;1107;209383;-65
2021/09/13 05:27:51;;;;;;;21.83;18.98;;;;;;;15.66;79.65;99853.13;253718;1107;115546;-66
2021/09/13 05:32:55;;;;;;;28.33;19.20;;;;;;;15.87;79.21;99852.12;254435;1107;116006;-65
2021/09/13 05:37:58;;;;;;;25.95;19.83;;;;;;;16.11;79.54;99850.52;253749;1100;115773;-64
2021/09/13 05:43:05;;;;;;;22.45;18.30;;;;;;;16.35;79.13;99852.67;254205;1107;114978;-65
2021/09/13 05:48:08;;;;;;;16.95;15.15;;;;;;;16.64;79.01;99861.02;255365;1107;115227;-66
2021/09/13 05:53:11;;;;;;;23.68;21.18;;;;;;;16.82;79.01;99855.86;255850;1106;115336;-67
2021/09/13 05:58:14;;;;;;;22.68;18.15;;;;;;;17.06;78.58;99857.97;256058;1107;118963;-65
2021/09/13 06:03:17;;;;;;;24.43;19.70;;;;;;;17.26;78.58;99865.16;256254;1106;116596;-67
2021/09/13 06:08:20;;;;;;;21.75;19.10;;;;;;;17.50;78.17;99866.94;256275;1107;115720;-67
2021/09/13 06:13:29;;;;;;;22.20;17.85;;;;;;;17.74;77.70;99861.71;255901;1107;115713;-65
2021/09/13 06:18:31;;;;;;;24.65;20.08;;;;;;;17.94;77.71;99863.50;255753;1106;115582;-66
2021/09/13 06:23:34;;;;;;;25.08;17.93;;;;;;;18.18;77.36;99864.39;254363;1100;117066;-66
2021/09/13 06:28:37;;;;;;;21.35;18.50;;;;;;;18.43;77.30;99865.27;255038;1106;115880;-66
2021/09/13 06:33:40;;;;;;;21.60;18.63;;;;;;;18.68;76.96;99862.36;253837;1107;116016;-68
2021/09/13 06:38:45;;;;;;;21.48;17.70;;;;;;;18.78;76.59;99869.56;253655;1107;116772;-66
2021/09/13 06:43:48;;;;;;;19.00;17.08;;;;;;;18.79;76.29;99876.58;254417;1107;115536;-68
2021/09/13 06:48:51;;;;;;;26.05;18.25;;;;;;;18.82;75.98;99867.91;254734;1107;115706;-66
2021/09/13 06:53:55;;;;;;;19.75;16.05;;;;;;;18.91;75.96;99868.09;254216;1107;115680;-67
2021/09/13 06:58:58;;;;;;;17.87;16.00;;;;;;;18.90;75.69;99861.89;253735;1107;115268;-67
2021/09/13 07:04:02;;;;;;;17.50;15.68;;;;;;;18.99;75.96;99876.36;254024;1107;115458;-66
2021/09/13 07:09:06;;;;;;;18.28;16.23;;;;;;;19.14;75.63;99880.80;253736;1107;116160;-67
2021/09/13 07:14:10;;;;;;;18.48;13.95;;;;;;;19.22;75.43;99884.78;254542;1107;116549;-66
2021/09/13 07:19:13;;;;;;;18.93;16.33;;;;;;;19.37;75.80;99887.28;254003;1100;116276;-67
2021/09/13 07:24:20;;;;;;;18.30;15.08;;;;;;;19.46;75.06;99882.86;254056;1106;117537;-67
2021/09/13 07:29:25;;;;;;;15.93;13.78;;;;;;;19.54;75.16;99887.66;253739;1107;116022;-67
2021/09/13 07:34:30;;;;;;;15.00;13.50;;;;;;;19.64;74.38;99890.21;254582;1106;139901;-67
2021/09/13 07:39:34;;;;;;;17.85;14.60;;;;;;;19.64;74.43;99890.21;253999;1107;117198;-67
2021/09/13 07:44:38;;;;;;;15.08;13.10;;;;;;;19.64;73.51;99895.62;253956;1107;116444;-67
2021/09/13 07:49:42;;;;;;;15.43;13.70;;;;;;;19.60;73.65;99888.38;253855;1107;116866;-66
2021/09/13 07:54:45;;;;;;;14.05;12.48;;;;;;;19.71;73.97;99896.08;253873;1107;115970;-66
2021/09/13 07:59:49;;;;;;;16.58;14.43;;;;;;;19.80;73.85;99894.34;253752;1107;116348;-66
2021/09/13 08:04:53;;;;;;;14.10;11.65;;;;;;;19.95;74.07;99897.91;255024;1107;118151;-67
2021/09/13 08:09:56;;;;;;;11.53;10.43;;;;;;;20.18;74.02;99897.02;253854;1107;116881;-66
2021/09/13 08:15:00;;;;;;;12.15;9.98;;;;;;;20.44;73.35;99902.88;253930;1107;115923;-66
2021/09/13 08:20:04;;;;;;;10.93;9.78;;;;;;;20.71;73.04;99907.58;253869;1107;115725;-66
2021/09/13 08:25:08;;;;;;;10.73;9.35;;;;;;;20.90;72.71;99913.72;256171;1107;116922;-66
2021/09/13 08:30:13;;;;;;;8.03;7.23;;;;;;;21.45;72.65;99911.88;254181;1107;115735;-68
2021/09/13 08:35:17;;;;;;;11.40;6.88;;;;;;;21.66;71.85;99914.98;254018;1107;115971;-66
2021/09/13 08:40:23;;;;;;;8.03;7.38;;;;;;;21.67;71.31;99919.31;253806;1106;116485;-67
2021/09/13 08:55:51;;;;;;;7.65;6.85;;;;;;;21.74;70.45;99927.02;253757;1100;116154;-69
2021/09/13 09:00:55;;;;;;;6.65;6.05;;;;;;;21.96;69.84;99931.72;253895;1107;115262;-66
2021/09/13 09:05:59;;;;;;;5.17;4.77;;;;;;;22.45;69.42;99926.23;253980;1107;116261;-65
2021/09/13 09:11:05;;;;;;;6.88;6.18;;;;;;;23.02;69.18;99920.20;253990;1107;115768;-65
2021/09/13 09:16:10;;;;;;;8.68;7.85;;;;;;;23.44;68.00;99918.78;254528;1107;115435;-65
2021/09/13 09:21:29;;;;;;;7.70;7.00;;;;;;;23.62;67.13;99917.73;254331;1106;115463;-66
2021/09/13 09:26:34;;;;;;;6.85;6.20;;;;;;;23.59;65.88;99915.64;254429;1100;115871;-66
2021/09/13 09:31:39;;;;;;;7.50;6.80;;;;;;;23.63;65.32;99910.37;253991;1107;115997;-66
2021/09/13 09:37:07;;;;;;;9.20;7.20;;;;;;;23.62;64.85;99920.45;254012;1107;114600;-66
2021/09/13 09:42:13;;;;;;;8.03;7.30;;;;;;;23.67;65.03;99920.31;253935;1100;115539;-66
2021/09/13 09:47:21;;;;;;;8.73;7.93;;;;;;;23.82;64.49;99919.87;253877;1107;115874;-65
2021/09/13 09:52:33;;;;;;;6.68;6.18;;;;;;;23.44;63.45;99924.22;254228;1107;114912;-67
2021/09/13 09:57:38;;;;;;;7.08;6.50;;;;;;;23.11;63.08;99931.94;255428;1107;116489;-67
2021/09/13 10:02:42;;;;;;;5.23;4.83;;;;;;;23.15;62.91;99930.20;254524;1107;116010;-66
2021/09/13 10:07:49;;;;;;;5.80;5.30;;;;;;;22.86;62.16;99921.73;253947;1100;115036;-69
2021/09/13 10:12:53;;;;;;;6.60;4.85;;;;;;;23.34;62.59;99930.74;254092;1107;115549;-70
2021/09/13 10:17:57;;;;;;;5.20;4.65;;;;;;;23.25;62.12;99929.90;253864;1105;115555;-66
2021/09/13 10:23:04;;;;;;;5.18;4.58;;;;;;;23.07;61.11;99936.39;256471;1106;115648;-66
2021/09/13 10:28:08;;;;;;;4.73;4.38;;;;;;;23.43;61.29;99928.06;255952;1100;115263;-68
2021/09/13 10:33:15;;;;;;;6.25;4.23;;;;;;;23.94;61.08;99921.95;255147;1107;117711;-68
2021/09/13 10:38:44;;;;;;;5.58;5.10;;;;;;;23.98;60.45;99917.47;253827;1107;116307;-69
2021/09/13 10:44:06;;;;;;;5.70;5.20;;;;;;;23.92;59.60;99917.94;253674;1107;120354;-69
2021/09/13 10:49:17;;;;;;;6.68;6.18;;;;;;;23.61;59.74;99927.02;254093;1107;117407;-66
2021/09/13 10:54:21;;;;;;;6.00;5.53;;;;;;;23.17;59.31;99931.49;253632;1107;114802;-67
2021/09/13 10:59:44;;;;;;;8.80;4.95;;;;;;;22.75;59.73;99934.74;253925;1107;115693;-66
2021/09/13 11:05:19;;;;;;;5.93;5.43;;;;;;;22.35;59.93;99936.53;254090;1107;115923;-67
2021/09/13 11:10:27;;;;;;;9.90;6.28;;;;;;;22.03;60.33;99938.34;253947;1107;115616;-66
2021/09/13 11:15:30;;;;;;;7.65;6.13;;;;;;;21.88;60.98;99929.72;254064;1107;136770;-66
2021/09/13 11:20:34;;;;;;;6.70;5.83;;;;;;;21.82;61.76;99939.88;254117;1101;115979;-66
2021/09/13 11:25:38;;;;;;;7.13;6.53;;;;;;;21.84;61.53;99929.52;253887;1105;115435;-66
2021/09/13 11:30:44;;;;;;;7.13;5.75;;;;;;;21.80;61.46;99936.66;254394;1107;115590;-66
2021/09/13 11:35:55;;;;;;;5.50;5.10;;;;;;;21.90;61.47;99928.30;254185;1107;115915;-65
2021/09/13 11:41:11;;;;;;;6.55;5.20;;;;;;;22.44;61.29;99932.78;254343;1106;115178;-66
2021/09/13 11:46:15;;;;;;;8.18;4.18;;;;;;;23.16;61.17;99921.73;254167;1107;115656;-66
2021/09/13 11:51:18;;;;;;;4.30;3.80;;;;;;;23.67;59.85;99917.59;255175;1106;115640;-67
2021/09/13 11:56:21;;;;;;;4.23;3.93;;;;;;;23.91;58.23;99919.05;254640;1107;116297;-68
2021/09/13 12:01:24;;;;;;;3.88;3.58;;;;;;;24.10;57.64;99914.13;254241;1107;114992;-69
2021/09/13 12:06:28;;;;;;;4.50;4.20;;;;;;;23.97;56.64;99912.34;254228;1100;115632;-66
2021/09/13 12:11:36;;;;;;;6.85;4.65;;;;;;;24.02;55.88;99920.36;255355;1107;115596;-67
2021/09/13 12:17:12;;;;;;;6.28;4.38;;;;;;;24.35;55.55;99916.06;256327;1106;116762;-66
2021/09/13 12:22:17;;;;;;;6.48;3.90;;;;;;;23.98;54.90;99924.84;254650;1107;115560;-69
2021/09/13 12:27:23;;;;;;;8.27;4.57;;;;;;;23.58;54.40;99919.48;254142;1107;116624;-69
2021/09/13 12:32:35;;;;;;;4.05;3.85;;;;;;;23.45;54.88;99923.91;253944;1107;116819;-68
2021/09/13 12:37:39;;;;;;;8.58;4.58;;;;;;;23.48;55.25;99920.56;255064;1107;115340;-68
2021/09/13 12:43:01;;;;;;;6.28;4.35;;;;;;;23.97;54.49;99923.23;254026;1107;115308;-67
2021/09/13 12:48:06;;;;;;;5.95;4.30;;;;;;;24.08;54.74;99919.09;254353;1107;115974;-69
2021/09/13 12:53:21;;;;;;;3.93;3.60;;;;;;;24.22;54.59;99905.29;253758;1107;115184;-69
2021/09/13 12:58:27;;;;;;;7.03;5.15;;;;;;;24.02;53.69;99912.98;254258;1100;115670;-69
2021/09/13 13:03:35;;;;;;;4.65;4.13;;;;;;;23.83;53.23;99923.39;253849;1107;115461;-67
2021/09/13 13:08:39;;;;;;;;;;;;;;;23.88;53.07;99919.69;254416;1107;115249;-67
2021/09/13 13:13:42;;;;;;;4.55;4.15;;;;;;;23.53;53.29;99918.84;254574;1106;103018;-67
2021/09/13 13:18:46;;;;;;;5.17;4.30;;;;;;;23.32;53.03;99924.02;254018;1100;115528;-68
2021/09/13 13:23:49;;;;;;;7.50;4.45;;;;;;;23.25;53.26;99918.22;254036;1107;115300;-66
2021/09/13 13:28:53;;;;;;;4.78;4.23;;;;;;;23.39;53.48;99910.77;254289;1107;118891;-66
2021/09/13 13:33:56;;;;;;;4.40;4.00;;;;;;;23.30;52.97;99908.00;254207;1107;115428;-66
2021/09/13 13:38:59;;;;;;;4.00;3.70;;;;;;;23.20;52.59;99911.03;254710;1107;115858;-65
2021/09/13 13:44:03;;;;;;;4.68;4.28;;;;;;;23.39;52.84;99906.13;253659;1107;115230;-65
2021/09/13 13:49:07;;;;;;;5.95;4.78;;;;;;;23.50;52.57;99907.45;254155;1103;116020;-67
2021/09/13 13:54:11;;;;;;;4.50;4.10;;;;;;;23.47;52.09;99899.91;253743;1107;115810;-68
2021/09/13 13:59:14;;;;;;;4.57;4.17;;;;;;;23.26;51.38;99898.06;254369;1107;115570;-69
2021/09/13 14:04:17;;;;;;;8.43;4.38;;;;;;;23.15;51.24;99909.25;253651;1107;117109;-68
2021/09/13 14:09:21;;;;;;;4.00;3.70;;;;;;;23.06;51.28;99905.67;253871;1107;115515;-66
2021/09/13 14:14:25;;;;;;;8.58;4.10;;;;;;;22.94;50.97;99905.45;253966;1107;115485;-65
2021/09/13 14:19:29;;;;;;;5.03;4.63;;;;;;;22.90;51.22;99912.66;253600;1101;116743;-66
2021/09/13 14:24:33;;;;;;;4.30;3.13;;;;;;;22.90;51.36;99909.94;256197;1107;114775;-66
2021/09/13 14:29:37;;;;;;;4.40;4.00;;;;;;;22.87;51.06;99907.03;256511;1107;115457;-68
2021/09/13 14:34:41;;;;;;;4.23;3.83;;;;;;;22.81;51.19;99909.88;256171;1103;115043;-67
2021/09/13 14:39:46;;;;;;;9.35;3.93;;;;;;;22.80;51.40;99916.42;254880;1107;115686;-68
2021/09/13 14:44:51;;;;;;;3.88;3.58;;;;;;;22.70;51.35;99904.98;253915;1107;116851;-68
2021/09/13 14:49:54;;;;;;;4.08;3.65;;;;;;;22.63;51.74;99913.56;254434;1106;115029;-68
2021/09/13 14:54:57;;;;;;;4.20;3.60;;;;;;;22.55;51.69;99910.81;254142;1107;115767;-67
2021/09/13 15:00:04;;;;;;;4.53;3.60;;;;;;;22.41;51.74;99917.09;254961;1106;116295;-68
2021/09/13 15:05:09;;;;;;;4.08;3.73;;;;;;;22.23;52.12;99909.94;254389;1107;115437;-67
2021/09/13 15:10:12;;;;;;;3.50;3.28;;;;;;;22.08;52.06;99919.23;254351;1107;115755;-67
2021/09/13 15:15:15;;;;;;;3.40;2.78;;;;;;;21.89;52.20;99931.32;254485;1107;118261;-67
2021/09/13 15:20:18;;;;;;;3.70;3.43;;;;;;;21.74;52.84;99918.88;253925;1107;116177;-65
2021/09/13 15:25:22;;;;;;;7.65;4.10;;;;;;;21.70;53.19;99918.70;253718;1107;114902;-65
2021/09/13 15:30:28;;;;;;;5.10;4.10;;;;;;;21.59;53.68;99922.73;253597;1101;115585;-66
2021/09/13 15:35:31;;;;;;;3.33;3.07;;;;;;;21.52;53.60;99916.90;254332;1107;115183;-65
2021/09/13 15:40:34;;;;;;;3.45;3.15;;;;;;;21.45;53.96;99921.92;253634;1107;118270;-65
2021/09/13 15:45:37;;;;;;;3.90;2.87;;;;;;;21.36;53.92;99923.75;253388;1107;116036;-68
2021/09/13 15:50:41;;;;;;;3.95;3.60;;;;;;;21.26;54.23;99923.94;254922;1107;115529;-64
2021/09/13 15:55:44;;;;;;;15.63;3.13;;;;;;;21.13;53.51;99926.30;254365;1107;117355;-64
2021/09/13 16:00:48;;;;;;;5.57;4.07;;;;;;;21.02;54.16;99933.03;253520;1102;116587;-64
2021/09/13 16:05:51;;;;;;;6.23;3.53;;;;;;;20.90;54.86;99929.98;253702;1100;116616;-63
2021/09/13 16:10:57;;;;;;;8.40;3.90;;;;;;;20.77;55.08;99933.48;253580;1102;115640;-67
2021/09/13 16:16:00;;;;;;;4.93;4.40;;;;;;;20.62;55.56;99929.11;254573;1107;115936;-68
2021/09/13 16:21:04;;;;;;;11.10;3.78;;;;;;;20.47;55.82;99930.18;256395;1107;115723;-66
2021/09/13 16:26:10;;;;;;;7.00;3.48;;;;;;;20.34;56.09;99932.79;256258;1105;117000;-66
2021/09/13 16:31:14;;;;;;;3.93;3.48;;;;;;;20.17;56.16;99941.45;256358;1106;116091;-66
2021/09/13 16:36:17;;;;;;;4.83;4.10;;;;;;;20.01;56.81;99942.74;256351;1107;116037;-66
2021/09/13 16:41:38;;;;;;;7.88;4.70;;;;;;;19.79;57.56;99944.13;254411;1107;115241;-68
2021/09/13 16:46:40;;;;;;;5.40;4.90;;;;;;;19.55;58.23;99942.55;253791;1106;116087;-64
2021/09/13 16:51:44;;;;;;;5.55;5.03;;;;;;;19.31;58.68;99943.30;255349;1107;116075;-63
2021/09/13 16:56:47;;;;;;;8.63;5.13;;;;;;;19.12;59.03;99950.54;253998;1107;115759;-65
2021/09/13 17:01:53;;;;;;;4.50;4.03;;;;;;;18.94;59.74;99952.08;254616;1106;117114;-64
2021/09/13 17:06:57;;;;;;;4.35;3.78;;;;;;;18.72;60.28;99949.02;253819;1107;116176;-64
2021/09/13 17:12:00;;;;;;;4.10;3.70;;;;;;;18.48;60.76;99962.41;255017;1106;114905;-64
2021/09/13 17:17:03;;;;;;;5.35;4.23;;;;;;;18.17;61.07;99959.91;254321;1106;114613;-66
2021/09/13 17:22:06;;;;;;;4.20;3.80;;;;;;;17.95;61.56;99961.40;254138;1107;116292;-65
2021/09/13 17:27:09;;;;;;;13.63;4.50;;;;;;;17.72;62.08;99963.67;253906;1107;116822;-65
2021/09/13 17:32:13;;;;;;;4.38;4.00;;;;;;;17.54;62.47;99961.53;254097;1107;117271;-64
2021/09/13 17:37:16;;;;;;;6.38;4.53;;;;;;;17.33;62.78;99958.09;254551;1107;116681;-65
2021/09/13 17:42:20;;;;;;;5.78;3.83;;;;;;;17.10;63.29;99966.78;253652;1107;115936;-65
2021/09/13 17:47:23;;;;;;;5.10;4.38;;;;;;;16.92;63.40;99970.02;254463;1106;116078;-64
2021/09/13 17:52:26;;;;;;;5.43;4.25;;;;;;;16.71;63.83;99969.22;253691;1100;118222;-66
2021/09/13 17:57:30;;;;;;;4.30;3.88;;;;;;;16.46;63.95;99976.18;254585;1106;116029;-64
2021/09/13 18:02:33;;;;;;;5.73;4.40;;;;;;;16.21;64.21;99980.69;254074;1107;115293;-64
2021/09/13 18:07:36;;;;;;;5.03;4.55;;;;;;;15.99;64.55;99984.40;255020;1106;115569;-65
2021/09/13 18:12:39;;;;;;;5.23;4.13;;;;;;;15.79;65.26;99981.65;254868;1107;115624;-64
2021/09/13 18:17:42;;;;;;;5.18;3.93;;;;;;;15.64;65.14;99981.56;255545;1107;115356;-65
2021/09/13 18:22:47;;;;;;;10.08;4.73;;;;;;;15.40;65.62;99986.53;253569;1107;115512;-63
2021/09/13 18:27:49;;;;;;;5.00;4.65;;;;;;;15.18;66.29;99983.98;253747;1107;116463;-64
2021/09/13 18:32:54;;;;;;;5.18;4.78;;;;;;;15.07;66.68;99984.97;256005;1107;115128;-64
2021/09/13 18:37:59;;;;;;;5.00;4.38;;;;;;;14.99;66.49;99991.63;253783;1107;116334;-63
2021/09/13 18:43:04;;;;;;;4.70;4.38;;;;;;;14.93;67.15;100000.73;255836;1107;115894;-64
2021/09/13 18:48:09;;;;;;;6.00;5.23;;;;;;;14.79;66.66;99997.65;255902;1107;115471;-64
2021/09/13 18:53:14;;;;;;;13.05;5.83;;;;;;;14.68;67.60;100003.98;254572;1107;116423;-65
2021/09/13 18:58:18;;;;;;;6.80;5.18;;;;;;;14.51;67.58;100015.91;255294;1107;116086;-63
2021/09/13 19:03:22;;;;;;;8.00;6.80;;;;;;;14.34;67.51;100019.48;253644;1107;117608;-64
2021/09/13 19:08:27;;;;;;;3.93;3.63;;;;;;;14.16;67.70;100019.80;255253;1107;114910;-64
2021/09/13 19:13:31;;;;;;;6.93;4.43;;;;;;;14.00;68.38;100015.34;254004;1106;115660;-63
2021/09/13 19:18:34;;;;;;;6.08;5.58;;;;;;;13.93;68.59;100028.11;254598;1107;115892;-64
2021/09/13 19:23:38;;;;;;;5.68;4.95;;;;;;;13.80;69.00;100032.77;254662;1107;115263;-64
2021/09/13 19:28:42;;;;;;;4.63;4.23;;;;;;;13.71;69.04;100038.83;254843;1107;114816;-66
2021/09/13 19:33:46;;;;;;;6.48;4.65;;;;;;;13.74;69.01;100047.17;254188;1107;116172;-64
2021/09/13 19:38:48;;;;;;;4.63;4.23;;;;;;;13.66;69.50;100046.78;254249;1107;116057;-64
2021/09/13 19:43:53;;;;;;;5.40;4.90;;;;;;;13.54;69.50;100054.10;254216;1107;115910;-63
2021/09/13 19:48:58;;;;;;;8.50;5.95;;;;;;;13.44;69.36;100060.14;254198;1106;116659;-64
2021/09/13 19:54:01;;;;;;;5.85;5.33;;;;;;;13.39;70.05;100062.73;254891;1107;115992;-64
2021/09/13 19:59:04;;;;;;;5.78;5.18;;;;;;;13.36;69.83;100072.07;254056;1107;118032;-64
2021/09/13 20:04:08;;;;;;;6.38;5.05;;;;;;;13.30;70.11;100067.69;254167;1107;116377;-64
2021/09/13 20:09:11;;;;;;;7.53;5.78;;;;;;;13.31;70.73;100071.98;254882;1107;116812;-63
2021/09/13 20:14:16;;;;;;;9.63;6.05;;;;;;;13.13;70.46;100070.35;255121;1107;116862;-63
2021/09/13 20:19:20;;;;;;;6.15;5.55;;;;;;;13.06;70.49;100075.05;253821;1106;117234;-63
2021/09/13 20:24:24;;;;;;;6.05;5.55;;;;;;;12.96;70.62;100069.52;254680;1107;116073;-63
2021/09/13 20:29:28;;;;;;;12.98;5.93;;;;;;;12.88;70.57;100067.23;255774;1106;116228;-63
2021/09/13 20:34:32;;;;;;;7.00;5.78;;;;;;;12.72;71.24;100078.72;256410;1107;116214;-63
2021/09/13 20:39:35;;;;;;;9.93;6.20;;;;;;;12.63;70.92;100075.62;256224;1107;116193;-63
2021/09/13 20:44:38;;;;;;;10.03;6.85;;;;;;;12.62;71.25;100071.31;254484;1098;116605;-64
2021/09/13 20:49:42;;;;;;;10.33;5.28;;;;;;;12.50;71.33;100083.95;254414;1107;116734;-62
2021/09/13 20:54:45;;;;;;;7.83;6.10;;;;;;;12.43;71.65;100086.75;255587;1107;115761;-64
2021/09/13 20:59:49;;;;;;;8.75;7.23;;;;;;;12.51;71.78;100090.11;254785;1107;115834;-64
2021/09/13 21:04:52;;;;;;;7.20;6.43;;;;;;;12.57;72.30;100089.94;255797;1107;116090;-63
2021/09/13 21:09:56;;;;;;;12.65;7.68;;;;;;;12.58;72.40;100093.42;254366;1106;115914;-63
2021/09/13 21:15:00;;;;;;;11.03;5.85;;;;;;;12.55;72.42;100086.69;254603;1107;116227;-65
2021/09/13 21:20:05;;;;;;;11.28;7.55;;;;;;;12.45;72.54;100086.52;254470;1106;116382;-64
2021/09/13 21:25:08;;;;;;;17.10;5.95;;;;;;;12.36;72.22;100094.09;253920;1107;116617;-64
2021/09/13 21:30:12;;;;;;;14.63;5.83;;;;;;;12.22;72.01;100097.30;254827;1107;116605;-64
2021/09/13 21:35:15;;;;;;;11.88;8.33;;;;;;;12.08;72.19;100099.41;254331;1105;116357;-64
2021/09/13 21:40:19;;;;;;;8.50;6.95;;;;;;;12.01;72.88;100094.18;254401;1107;115923;-64
2021/09/13 21:45:22;;;;;;;9.75;6.98;;;;;;;11.90;72.77;100100.38;253975;1107;117434;-64
2021/09/13 21:50:26;;;;;;;15.57;8.57;;;;;;;11.82;72.93;100106.06;254446;1107;117120;-63
2021/09/13 21:55:30;;;;;;;14.50;8.58;;;;;;;11.71;73.02;100102.31;253771;1107;116137;-64
2021/09/13 22:00:33;;;;;;;8.63;7.20;;;;;;;11.61;73.08;100098.63;253958;1107;118600;-65
2021/09/13 22:05:37;;;;;;;8.75;7.85;;;;;;;11.53;73.27;100105.11;254516;1107;115759;-68
2021/09/13 22:10:42;;;;;;;10.15;8.18;;;;;;;11.53;73.66;100102.45;254875;1107;115617;-64
2021/09/13 22:15:46;;;;;;;8.80;7.95;;;;;;;11.60;73.61;100113.83;253885;1107;116098;-66
2021/09/13 22:20:50;;;;;;;8.18;7.40;;;;;;;11.63;73.74;100113.34;254761;1100;115085;-64
2021/09/13 22:25:53;;;;;;;13.47;8.43;;;;;;;11.54;73.58;100117.42;255130;1107;116205;-64
2021/09/13 22:30:57;;;;;;;10.87;8.53;;;;;;;11.45;73.66;100110.79;255877;1107;115742;-64
2021/09/13 22:36:01;;;;;;;10.03;7.45;;;;;;;11.36;73.61;100117.50;254990;1107;116212;-66
2021/09/13 22:41:05;;;;;;;8.50;6.53;;;;;;;11.34;73.56;100120.40;255677;1107;115365;-64
2021/09/13 22:46:08;;;;;;;9.55;6.90;;;;;;;11.37;73.88;100116.45;255493;1107;115603;-64
2021/09/13 22:51:11;;;;;;;7.88;6.70;;;;;;;11.36;73.88;100120.17;254888;1106;115306;-64
2021/09/13 22:56:15;;;;;;;12.93;7.10;;;;;;;11.30;74.00;100129.13;253661;1107;115586;-66
2021/09/13 23:01:18;;;;;;;10.83;7.68;;;;;;;11.27;74.49;100133.06;254318;1107;115701;-65
2021/09/13 23:06:23;;;;;;;7.75;7.03;;;;;;;11.34;74.21;100146.28;254910;1107;116454;-65
2021/09/13 23:11:26;;;;;;;9.43;6.80;;;;;;;11.25;74.58;100137.00;255374;1107;116173;-64
2021/09/13 23:16:29;;;;;;;9.68;6.30;;;;;;;11.25;74.41;100131.66;254967;1107;115543;-64
2021/09/13 23:21:32;;;;;;;8.98;6.73;;;;;;;11.19;74.07;100128.05;254188;1106;115233;-65
2021/09/13 23:26:36;;;;;;;8.65;7.85;;;;;;;11.07;74.47;100129.86;254727;1107;115144;-64